Time;durP1;ratioP1;P1;durP2;ratioP2;P2;SDS_P1;SDS_P2;PMS_P1;PMS_P2;Temp;Humidity;BMP_temperature;BMP_pressure;BME280_temperature;BME280_humidity;BME280_pressure;Samples;Min_cycle;Max_cycle;Signal;HPM_P1;HPM_P2
2022/07/27 00:00:23;;;;;;;10.07;4.75;;;15.40;99.90;;;;;;5066304;28;20031;-67
2022/07/27 00:02:50;;;;;;;9.88;4.50;;;15.40;99.90;;;;;;5068029;28;20033;-67
2022/07/27 00:05:15;;;;;;;11.82;5.22;;;15.40;99.90;;;;;;5065454;28;20036;-68
2022/07/27 00:07:41;;;;;;;9.30;4.80;;;15.40;99.90;;;;;;5065216;28;20062;-67
2022/07/27 00:10:07;;;;;;;11.27;4.65;;;15.30;99.90;;;;;;5049302;28;20382;-67
2022/07/27 00:12:33;;;;;;;9.70;4.80;;;15.30;99.90;;;;;;5055311;28;20716;-68
2022/07/27 00:14:59;;;;;;;10.95;5.05;;;15.30;99.90;;;;;;5044323;28;20035;-67
2022/07/27 00:17:25;;;;;;;14.65;5.35;;;15.20;99.90;;;;;;5067474;28;20040;-67
2022/07/27 00:19:51;;;;;;;9.75;4.45;;;15.20;99.90;;;;;;5065245;28;20347;-67
2022/07/27 00:22:17;;;;;;;11.80;4.60;;;15.20;99.90;;;;;;5048096;28;20497;-67
2022/07/27 00:24:43;;;;;;;9.25;4.20;;;15.20;99.90;;;;;;5065300;28;20068;-67
2022/07/27 00:27:09;;;;;;;12.30;4.53;;;15.20;99.90;;;;;;5048881;28;20048;-67
2022/07/27 00:29:34;;;;;;;10.65;4.45;;;15.20;99.90;;;;;;5067110;28;20130;-68
2022/07/27 00:32:00;;;;;;;9.60;4.10;;;15.20;99.90;;;;;;5067319;28;20083;-67
2022/07/27 00:34:26;;;;;;;9.50;4.22;;;15.10;99.90;;;;;;5048308;28;20067;-67
2022/07/27 00:36:51;;;;;;;13.57;4.60;;;15.00;99.90;;;;;;5067161;28;20043;-68
2022/07/27 00:39:18;;;;;;;11.95;4.93;;;15.10;99.90;;;;;;5067004;28;20031;-67
2022/07/27 00:41:44;;;;;;;10.10;4.88;;;15.10;99.90;;;;;;5047877;28;20025;-68
2022/07/27 00:44:11;;;;;;;12.23;4.38;;;15.10;99.90;;;;;;5070127;28;20124;-68
2022/07/27 00:46:37;;;;;;;9.00;4.45;;;15.10;99.90;;;;;;5052227;28;20040;-67
2022/07/27 00:49:03;;;;;;;8.15;4.18;;;15.10;99.90;;;;;;5070298;28;20489;-68
2022/07/27 00:51:29;;;;;;;11.23;4.30;;;15.20;99.90;;;;;;5070873;28;20658;-67
2022/07/27 00:53:55;;;;;;;11.52;4.30;;;15.10;99.90;;;;;;5070135;28;20036;-68
2022/07/27 00:56:21;;;;;;;14.25;4.35;;;15.00;99.90;;;;;;5070933;28;20854;-67
2022/07/27 00:58:49;;;;;;;10.55;3.88;;;15.00;99.90;;;;;;5069230;28;20476;-67
2022/07/27 01:01:17;;;;;;;9.93;3.72;;;15.00;99.90;;;;;;5068270;28;20403;-68
2022/07/27 01:03:43;;;;;;;9.80;4.07;;;15.00;99.90;;;;;;5052462;28;20537;-68
2022/07/27 01:06:09;;;;;;;11.38;3.83;;;15.00;99.90;;;;;;5051256;28;20118;-68
2022/07/27 01:08:35;;;;;;;11.20;3.67;;;15.00;99.90;;;;;;5070692;28;20093;-67
2022/07/27 01:11:01;;;;;;;10.48;3.60;;;15.10;99.90;;;;;;5069729;28;20129;-67
2022/07/27 01:13:27;;;;;;;9.18;3.65;;;15.10;99.90;;;;;;5070267;28;20039;-67
2022/07/27 01:15:54;;;;;;;9.88;3.42;;;15.10;99.90;;;;;;5069906;28;20777;-67
2022/07/27 01:18:35;;;;;;;9.45;3.35;;;15.10;99.90;;;;;;5069714;28;20031;-67
2022/07/27 01:21:04;;;;;;;13.05;3.85;;;15.10;99.90;;;;;;5068982;28;20041;-67
2022/07/27 01:23:32;;;;;;;8.27;3.70;;;15.10;99.90;;;;;;5049046;28;20482;-67
2022/07/27 01:26:02;;;;;;;11.85;4.07;;;15.00;99.90;;;;;;5069333;28;20040;-67
2022/07/27 01:28:28;;;;;;;;;;;15.00;99.90;;;;;;5070444;28;20071;-67
2022/07/27 01:30:54;;;;;;;10.35;3.47;;;15.00;99.90;;;;;;5067837;28;19951;-68
2022/07/27 01:33:26;;;;;;;10.30;3.30;;;15.00;99.90;;;;;;5069749;28;20037;-67
2022/07/27 01:35:54;;;;;;;10.98;3.60;;;15.00;99.90;;;;;;5070276;28;20033;-67
2022/07/27 01:38:20;;;;;;;9.93;3.72;;;14.90;99.90;;;;;;5069985;28;20032;-67
2022/07/27 01:40:45;;;;;;;10.27;3.35;;;14.90;99.90;;;;;;5070100;28;20090;-67
2022/07/27 01:43:11;;;;;;;10.80;3.53;;;14.80;99.90;;;;;;5068987;28;20037;-68
2022/07/27 01:45:38;;;;;;;11.05;4.25;;;14.80;99.90;;;;;;5068952;28;20029;-67
2022/07/27 01:48:04;;;;;;;8.52;3.78;;;14.80;99.90;;;;;;5069830;28;20107;-67
2022/07/27 01:50:30;;;;;;;8.07;3.17;;;14.80;99.90;;;;;;5069691;28;20132;-68
2022/07/27 01:52:56;;;;;;;13.32;3.72;;;14.80;99.90;;;;;;5051970;28;20032;-68
2022/07/27 01:55:22;;;;;;;8.65;3.20;;;14.80;99.90;;;;;;5066528;28;20024;-67
2022/07/27 01:57:48;;;;;;;11.15;3.40;;;14.80;99.90;;;;;;5069521;28;20115;-67
2022/07/27 02:00:14;;;;;;;10.63;3.92;;;14.80;99.90;;;;;;5068662;28;20029;-68
2022/07/27 02:02:40;;;;;;;11.02;3.42;;;14.90;99.90;;;;;;5050803;28;20028;-68
2022/07/27 02:05:07;;;;;;;12.63;3.75;;;14.90;99.90;;;;;;5066216;28;20036;-67
2022/07/27 02:07:32;;;;;;;11.10;3.63;;;14.90;99.90;;;;;;5050279;28;20577;-68
2022/07/27 02:09:58;;;;;;;12.73;3.80;;;14.90;99.90;;;;;;5050578;28;20035;-68
2022/07/27 02:12:35;;;;;;;10.13;3.38;;;14.90;99.90;;;;;;5067966;28;20055;-67
2022/07/27 02:15:21;;;;;;;10.30;3.50;;;14.90;99.90;;;;;;5066733;28;20117;-67
2022/07/27 02:17:48;;;;;;;10.55;3.58;;;14.90;99.90;;;;;;5056508;28;20040;-67
2022/07/27 02:20:16;;;;;;;12.63;3.88;;;14.90;99.90;;;;;;5068886;28;20036;-68
2022/07/27 02:22:42;;;;;;;9.15;3.22;;;14.90;99.90;;;;;;5069401;28;20033;-68
2022/07/27 02:25:09;;;;;;;9.80;3.10;;;14.90;99.90;;;;;;5068828;28;20039;-68
2022/07/27 02:27:35;;;;;;;11.02;3.58;;;14.90;99.90;;;;;;5049492;28;20537;-68
2022/07/27 02:30:02;;;;;;;9.65;3.17;;;14.90;99.90;;;;;;5068861;28;20040;-68
2022/07/27 02:32:28;;;;;;;8.95;3.33;;;14.90;99.90;;;;;;5064815;28;20040;-68
2022/07/27 02:34:53;;;;;;;8.32;3.50;;;14.90;99.90;;;;;;5069299;28;20033;-68
2022/07/27 02:37:19;;;;;;;8.40;3.00;;;14.90;99.90;;;;;;5067824;28;20040;-68
2022/07/27 02:39:45;;;;;;;8.85;3.22;;;14.80;99.90;;;;;;5068751;28;20028;-68
2022/07/27 02:42:11;;;;;;;12.18;3.58;;;14.80;99.90;;;;;;5067513;28;20056;-68
2022/07/27 02:44:36;;;;;;;11.77;3.63;;;14.80;99.90;;;;;;5068537;28;20028;-68
2022/07/27 02:47:02;;;;;;;9.15;3.15;;;14.80;99.90;;;;;;5067953;28;20481;-68
2022/07/27 02:49:28;;;;;;;10.35;3.50;;;14.80;99.90;;;;;;5050792;28;20047;-68
2022/07/27 02:51:54;;;;;;;12.20;3.30;;;14.80;99.90;;;;;;5050547;28;20782;-68
2022/07/27 02:54:23;;;;;;;9.60;3.38;;;14.80;99.90;;;;;;5050093;28;20040;-68
2022/07/27 02:56:52;;;;;;;10.73;3.40;;;14.80;99.90;;;;;;5066998;28;20386;-68
2022/07/27 02:59:19;;;;;;;9.10;3.03;;;14.80;99.90;;;;;;5066436;28;20493;-68
2022/07/27 03:01:45;;;;;;;9.15;2.50;;;14.90;99.90;;;;;;5068828;28;20657;-68
2022/07/27 03:04:11;;;;;;;8.02;3.70;;;14.90;99.90;;;;;;5048257;28;20036;-68
2022/07/27 03:06:37;;;;;;;9.95;2.92;;;14.90;99.90;;;;;;5066652;28;20036;-67
2022/07/27 03:09:04;;;;;;;9.40;3.17;;;14.80;99.90;;;;;;5066924;28;20149;-68
2022/07/27 03:11:30;;;;;;;9.85;3.28;;;14.70;99.90;;;;;;5066600;28;20032;-68
2022/07/27 03:13:56;;;;;;;11.70;3.75;;;14.70;99.90;;;;;;5063600;28;20028;-68
2022/07/27 03:16:22;;;;;;;10.07;3.50;;;14.60;99.90;;;;;;5049189;28;20124;-68
2022/07/27 03:18:48;;;;;;;7.28;2.70;;;14.60;99.90;;;;;;5059140;28;20037;-68
2022/07/27 03:21:14;;;;;;;9.23;3.25;;;14.60;99.90;;;;;;5063832;28;20031;-68
2022/07/27 03:23:40;;;;;;;8.13;3.00;;;14.60;99.90;;;;;;5038772;28;20060;-68
2022/07/27 03:26:06;;;;;;;8.15;3.10;;;14.60;99.90;;;;;;5032087;28;20055;-68
2022/07/27 03:28:31;;;;;;;8.95;3.45;;;14.60;99.90;;;;;;5065428;28;20483;-68
2022/07/27 03:30:57;;;;;;;7.32;3.35;;;14.60;99.90;;;;;;5042959;28;20029;-68
2022/07/27 03:33:23;;;;;;;8.60;3.10;;;14.60;99.90;;;;;;5048752;28;20036;-68
2022/07/27 03:35:49;;;;;;;6.05;2.88;;;14.60;99.90;;;;;;5048439;28;20564;-68
2022/07/27 03:38:16;;;;;;;7.32;2.90;;;14.60;99.90;;;;;;5030104;28;20035;-68
2022/07/27 03:40:42;;;;;;;7.53;3.05;;;14.60;99.90;;;;;;5067973;28;20044;-68
2022/07/27 03:43:08;;;;;;;12.05;3.45;;;14.60;99.90;;;;;;5066238;28;20028;-68
2022/07/27 03:45:34;;;;;;;11.55;3.40;;;14.60;99.90;;;;;;5050124;28;20090;-68
2022/07/27 03:47:59;;;;;;;8.32;3.40;;;14.60;99.90;;;;;;5068408;28;20032;-68
2022/07/27 03:50:26;;;;;;;9.50;3.22;;;14.60;99.90;;;;;;5068326;28;20051;-68
2022/07/27 03:52:52;;;;;;;9.23;3.08;;;14.60;99.90;;;;;;5049892;28;20042;-68
2022/07/27 03:55:21;;;;;;;11.07;2.78;;;14.70;99.90;;;;;;5067782;28;20061;-68
2022/07/27 03:57:46;;;;;;;13.38;3.45;;;14.70;99.90;;;;;;5068492;28;20036;-68
2022/07/27 04:00:13;;;;;;;10.85;3.10;;;14.70;99.90;;;;;;5067081;28;20393;-69
2022/07/27 04:02:42;;;;;;;10.77;3.25;;;14.70;99.90;;;;;;5066096;28;20089;-68
2022/07/27 04:05:08;;;;;;;8.88;2.78;;;14.70;99.90;;;;;;5065578;28;20086;-68
2022/07/27 04:07:34;;;;;;;8.90;3.53;;;14.70;99.90;;;;;;5048875;28;20041;-68
2022/07/27 04:09:59;;;;;;;13.60;3.67;;;14.80;99.90;;;;;;5068540;28;20528;-68
2022/07/27 04:12:25;;;;;;;11.43;3.25;;;14.80;99.90;;;;;;5067272;28;20172;-69
2022/07/27 04:14:51;;;;;;;12.15;3.00;;;14.70;99.90;;;;;;5067556;28;20831;-68
2022/07/27 04:17:17;;;;;;;9.50;3.40;;;14.80;99.90;;;;;;5066820;28;20036;-68
2022/07/27 04:19:42;;;;;;;12.52;2.90;;;14.80;99.90;;;;;;5061965;28;20037;-68
2022/07/27 04:22:08;;;;;;;6.47;2.85;;;14.80;99.90;;;;;;5056988;28;20074;-68
2022/07/27 04:24:34;;;;;;;9.63;3.40;;;14.70;99.90;;;;;;5067837;28;20040;-68
2022/07/27 04:26:59;;;;;;;13.00;3.47;;;14.70;99.90;;;;;;5066868;28;20430;-68
2022/07/27 04:29:25;;;;;;;9.85;3.10;;;14.70;99.90;;;;;;5067761;28;20044;-68
2022/07/27 04:31:51;;;;;;;14.73;3.75;;;14.70;99.90;;;;;;5047870;28;20028;-68
2022/07/27 04:34:17;;;;;;;12.80;3.25;;;14.70;99.90;;;;;;5048223;28;20609;-69
2022/07/27 04:36:43;;;;;;;10.90;3.30;;;14.70;99.90;;;;;;5048756;28;20036;-68
2022/07/27 04:39:09;;;;;;;10.30;3.25;;;14.70;99.90;;;;;;5067288;28;20040;-68
2022/07/27 04:41:35;;;;;;;13.95;3.75;;;14.70;99.90;;;;;;5065186;28;20488;-68
2022/07/27 04:44:00;;;;;;;9.57;3.55;;;14.70;99.90;;;;;;5066908;28;20453;-68
2022/07/27 04:46:28;;;;;;;11.32;3.35;;;14.70;99.90;;;;;;5066454;28;20462;-68
2022/07/27 04:48:54;;;;;;;10.73;3.35;;;14.70;99.90;;;;;;5067132;28;20041;-68
2022/07/27 04:51:20;;;;;;;10.75;3.78;;;14.70;99.90;;;;;;5047889;28;20482;-68
2022/07/27 04:53:46;;;;;;;11.57;3.00;;;14.70;99.90;;;;;;5066594;28;20474;-68
2022/07/27 04:56:11;;;;;;;11.68;3.17;;;14.70;99.90;;;;;;5066395;28;20038;-68
2022/07/27 04:58:37;;;;;;;10.02;3.08;;;14.70;99.90;;;;;;5048621;28;20120;-67
2022/07/27 05:01:03;;;;;;;8.85;2.65;;;14.80;99.90;;;;;;5047804;28;20040;-68
2022/07/27 05:03:29;;;;;;;7.25;2.78;;;14.80;99.90;;;;;;5066316;28;20032;-68
2022/07/27 05:05:55;;;;;;;11.63;2.70;;;14.80;99.90;;;;;;5064266;28;20036;-68
2022/07/27 05:08:20;;;;;;;9.25;2.40;;;14.80;99.90;;;;;;5065622;28;20364;-67
2022/07/27 05:10:46;;;;;;;9.02;2.25;;;14.90;99.90;;;;;;5048298;28;20029;-68
2022/07/27 05:13:12;;;;;;;8.52;2.55;;;14.90;99.90;;;;;;5067429;28;20477;-68
2022/07/27 05:15:39;;;;;;;6.35;2.28;;;15.00;99.90;;;;;;5049610;28;20039;-68
2022/07/27 05:18:04;;;;;;;9.57;2.60;;;15.00;99.90;;;;;;5064656;28;20093;-68
2022/07/27 05:20:30;;;;;;;8.02;2.08;;;15.00;99.90;;;;;;5067309;28;20428;-68
2022/07/27 05:22:57;;;;;;;8.35;1.92;;;15.00;99.90;;;;;;5065251;28;20726;-67
2022/07/27 05:25:26;;;;;;;8.10;2.40;;;15.00;99.90;;;;;;5066827;28;20082;-68
2022/07/27 05:27:52;;;;;;;8.00;2.40;;;15.00;99.90;;;;;;5041882;28;20051;-68
2022/07/27 05:30:19;;;;;;;7.40;2.40;;;15.10;99.90;;;;;;5049845;28;20082;-68
2022/07/27 05:32:45;;;;;;;9.48;2.35;;;15.10;99.90;;;;;;5070513;28;20082;-68
2022/07/27 05:35:11;;;;;;;8.73;2.58;;;15.10;99.90;;;;;;5043905;28;20060;-68
2022/07/27 05:37:37;;;;;;;7.25;2.53;;;15.20;99.90;;;;;;5069793;28;20086;-68
2022/07/27 05:40:06;;;;;;;6.97;2.60;;;15.20;99.90;;;;;;5051971;28;20024;-66
2022/07/27 05:42:32;;;;;;;8.50;2.55;;;15.30;99.90;;;;;;5070273;28;20037;-67
2022/07/27 05:44:58;;;;;;;7.68;1.95;;;15.30;99.90;;;;;;5047535;28;20401;-67
2022/07/27 05:47:24;;;;;;;5.82;2.38;;;15.30;99.90;;;;;;5068903;28;20051;-67
2022/07/27 05:49:49;;;;;;;7.65;2.47;;;15.40;99.90;;;;;;5069897;28;20036;-68
2022/07/27 05:52:15;;;;;;;10.90;2.30;;;15.40;99.90;;;;;;5070518;28;20711;-68
2022/07/27 05:54:42;;;;;;;8.18;2.60;;;15.40;99.90;;;;;;5070500;28;20064;-68
2022/07/27 05:57:08;;;;;;;6.57;2.38;;;15.40;99.90;;;;;;5068554;28;20119;-67
2022/07/27 05:59:35;;;;;;;8.35;2.35;;;15.40;99.90;;;;;;5052059;28;20127;-69
2022/07/27 06:02:02;;;;;;;8.90;2.38;;;15.50;99.90;;;;;;5069688;28;20508;-67
2022/07/27 06:04:28;;;;;;;9.88;2.45;;;15.50;99.90;;;;;;5051181;28;20029;-68
2022/07/27 06:09:39;;;;;;;12.25;2.92;;;15.60;99.90;;;;;;5065525;28;20055;-68
2022/07/27 06:12:05;;;;;;;8.80;2.30;;;15.60;99.90;;;;;;5068379;28;20036;-68
2022/07/27 06:14:31;;;;;;;12.05;2.40;;;15.70;99.90;;;;;;5062759;28;20414;-68
2022/07/27 06:16:57;;;;;;;8.15;2.42;;;15.70;99.90;;;;;;5039745;28;20481;-68
2022/07/27 06:19:23;;;;;;;9.10;2.45;;;15.80;99.90;;;;;;5064356;28;20188;-67
2022/07/27 06:21:49;;;;;;;8.50;2.25;;;15.80;99.90;;;;;;5059272;28;20646;-68
2022/07/27 06:24:15;;;;;;;6.28;1.95;;;15.80;99.90;;;;;;5061401;28;20032;-68
2022/07/27 06:26:41;;;;;;;9.07;2.67;;;15.90;99.90;;;;;;5068129;28;20047;-68
2022/07/27 06:29:06;;;;;;;7.40;2.20;;;15.90;99.90;;;;;;5062142;28;20025;-68
2022/07/27 06:31:32;;;;;;;6.85;2.05;;;16.00;99.90;;;;;;5062525;28;20037;-68
2022/07/27 06:33:58;;;;;;;7.43;2.15;;;16.10;99.90;;;;;;5065870;28;20062;-68
2022/07/27 06:36:23;;;;;;;7.13;2.28;;;16.10;99.90;;;;;;5046094;28;21254;-68
2022/07/27 06:38:49;;;;;;;10.05;2.15;;;16.20;99.90;;;;;;5067317;28;20033;-67
2022/07/27 06:41:15;;;;;;;7.57;2.20;;;16.30;99.90;;;;;;5064601;28;20433;-68
2022/07/27 06:43:41;;;;;;;7.85;2.25;;;16.30;99.90;;;;;;5067424;28;20037;-68
2022/07/27 06:46:11;;;;;;;7.85;2.20;;;16.30;99.90;;;;;;5050270;28;20032;-67
2022/07/27 06:48:38;;;;;;;8.60;2.50;;;16.40;99.90;;;;;;5049987;28;20086;-67
2022/07/27 06:51:04;;;;;;;8.30;2.58;;;16.40;99.90;;;;;;5067913;28;20036;-67
2022/07/27 06:53:29;;;;;;;7.07;2.13;;;16.40;99.90;;;;;;5063170;28;20369;-67
2022/07/27 06:55:57;;;;;;;9.27;2.17;;;16.40;99.90;;;;;;5048193;28;20508;-67
2022/07/27 06:58:22;;;;;;;10.68;2.33;;;16.50;99.90;;;;;;5067624;28;20035;-67
2022/07/27 07:00:48;;;;;;;12.38;2.30;;;16.50;99.90;;;;;;5067088;28;20028;-68
2022/07/27 07:03:14;;;;;;;8.48;2.40;;;16.60;99.90;;;;;;5043508;28;20082;-68
2022/07/27 07:05:45;;;;;;;6.40;1.80;;;16.60;99.90;;;;;;5064600;28;20032;-68
2022/07/27 07:08:12;;;;;;;7.05;2.53;;;16.70;99.90;;;;;;5062691;28;20483;-68
2022/07/27 07:10:39;;;;;;;6.70;1.90;;;16.70;99.90;;;;;;5046743;28;20037;-68
2022/07/27 07:13:07;;;;;;;5.78;1.70;;;16.80;99.90;;;;;;5063123;28;20040;-68
2022/07/27 07:15:34;;;;;;;7.60;2.05;;;16.90;99.90;;;;;;5062876;28;20021;-67
2022/07/27 07:18:01;;;;;;;6.35;1.85;;;17.00;99.90;;;;;;5058271;28;20028;-67
2022/07/27 07:20:27;;;;;;;7.40;2.00;;;17.10;99.90;;;;;;5063487;28;20040;-68
2022/07/27 07:22:53;;;;;;;5.82;2.08;;;17.20;99.90;;;;;;5065791;28;20033;-67
2022/07/27 07:25:19;;;;;;;6.90;1.70;;;17.20;99.90;;;;;;5063950;28;20032;-67
2022/07/27 07:27:44;;;;;;;5.93;2.03;;;17.40;99.90;;;;;;5064404;28;20230;-68
2022/07/27 07:30:11;;;;;;;8.32;2.05;;;17.50;99.90;;;;;;5061590;28;20414;-67
2022/07/27 07:32:36;;;;;;;7.85;1.80;;;17.70;99.90;;;;;;5062307;28;20082;-68
2022/07/27 07:35:03;;;;;;;6.03;1.50;;;17.80;99.90;;;;;;5064727;28;20889;-67
2022/07/27 07:37:29;;;;;;;5.82;1.45;;;17.90;99.90;;;;;;5045432;28;20093;-68
2022/07/27 07:39:55;;;;;;;5.35;1.70;;;18.10;99.90;;;;;;5058889;28;20052;-68
2022/07/27 07:42:21;;;;;;;5.78;1.45;;;18.30;99.90;;;;;;5062711;28;20098;-68
2022/07/27 07:44:47;;;;;;;6.72;1.52;;;18.40;99.90;;;;;;5056931;28;20708;-68
2022/07/27 07:47:12;;;;;;;5.43;1.60;;;18.50;99.90;;;;;;5059555;28;20043;-68
2022/07/27 07:49:38;;;;;;;6.03;1.42;;;18.50;99.90;;;;;;5063857;28;20047;-68
2022/07/27 07:52:04;;;;;;;5.15;1.40;;;18.50;99.90;;;;;;5058680;28;20029;-68
2022/07/27 07:54:30;;;;;;;4.05;1.30;;;18.50;99.90;;;;;;5060266;28;20037;-68
2022/07/27 07:56:55;;;;;;;5.93;1.30;;;18.60;99.90;;;;;;5061493;28;20044;-69
2022/07/27 07:59:21;;;;;;;3.75;1.13;;;18.80;99.90;;;;;;5061994;28;20047;-69
2022/07/27 08:01:46;;;;;;;4.72;1.13;;;18.80;99.90;;;;;;5046729;28;20040;-68
2022/07/27 08:04:12;;;;;;;6.75;1.25;;;18.90;99.90;;;;;;5066130;28;20029;-69
2022/07/27 08:06:38;;;;;;;4.50;0.98;;;18.90;99.90;;;;;;5066247;28;20119;-69
2022/07/27 08:09:05;;;;;;;3.72;0.80;;;19.00;99.90;;;;;;5067160;28;20045;-69
2022/07/27 08:11:31;;;;;;;3.42;0.90;;;19.10;99.90;;;;;;5066852;28;20025;-69
2022/07/27 08:13:57;;;;;;;4.72;1.20;;;19.10;99.90;;;;;;5066380;28;20082;-71
2022/07/27 08:16:22;;;;;;;4.80;1.13;;;19.10;99.90;;;;;;5066165;28;20043;-69
2022/07/27 08:18:48;;;;;;;3.85;0.88;;;19.00;99.90;;;;;;5064708;28;20036;-69
2022/07/27 08:21:14;;;;;;;3.78;1.25;;;18.90;99.90;;;;;;5061178;28;20103;-69
2022/07/27 08:23:40;;;;;;;5.93;1.38;;;18.90;99.90;;;;;;5066009;28;20036;-69
2022/07/27 08:26:05;;;;;;;10.02;1.60;;;18.90;99.90;;;;;;5065060;28;20041;-70
2022/07/27 08:28:31;;;;;;;4.13;0.90;;;19.00;99.90;;;;;;5060940;28;20028;-69
2022/07/27 08:30:57;;;;;;;2.35;0.80;;;19.20;99.90;;;;;;5062380;28;20025;-69
2022/07/27 08:33:23;;;;;;;6.45;1.00;;;19.20;99.90;;;;;;5063777;28;20028;-69
2022/07/27 08:35:49;;;;;;;6.47;1.30;;;19.10;99.90;;;;;;5060203;28;20058;-69
2022/07/27 08:38:15;;;;;;;4.20;1.10;;;19.10;99.90;;;;;;5063503;28;20485;-69
2022/07/27 08:40:41;;;;;;;4.28;0.98;;;19.20;99.90;;;;;;5061255;28;20041;-68
2022/07/27 08:43:07;;;;;;;5.75;1.02;;;19.30;99.90;;;;;;5061484;28;20549;-69
2022/07/27 08:45:33;;;;;;;5.22;1.13;;;19.50;99.90;;;;;;5060516;28;20393;-69
2022/07/27 08:48:00;;;;;;;2.67;0.88;;;19.70;99.90;;;;;;5056519;28;20044;-68
2022/07/27 08:50:28;;;;;;;3.17;1.02;;;19.80;99.90;;;;;;5041020;28;20085;-69
2022/07/27 08:53:12;;;;;;;3.47;1.02;;;19.80;99.90;;;;;;5041798;28;20028;-69
2022/07/27 08:55:41;;;;;;;5.10;0.90;;;19.90;99.90;;;;;;5059861;28;20033;-69
2022/07/27 08:58:08;;;;;;;4.75;0.90;;;19.80;99.90;;;;;;5047815;28;20494;-69
2022/07/27 09:00:37;;;;;;;5.05;1.13;;;19.80;99.90;;;;;;5065759;28;20042;-69
2022/07/27 09:03:03;;;;;;;4.60;1.00;;;19.80;99.90;;;;;;5066522;28;20063;-68
2022/07/27 09:05:29;;;;;;;2.42;0.77;;;19.80;99.90;;;;;;5068968;28;20253;-68
2022/07/27 09:08:11;;;;;;;3.90;1.10;;;19.60;99.80;;;;;;5070509;28;20055;-68
2022/07/27 09:10:37;;;;;;;4.80;1.13;;;19.60;99.90;;;;;;5071395;28;20094;-68
2022/07/27 09:13:27;;;;;;;3.85;1.20;;;19.50;99.90;;;;;;5071478;28;20394;-68
2022/07/27 09:15:56;;;;;;;3.05;1.08;;;19.40;99.90;;;;;;5058919;28;20485;-68
2022/07/27 09:18:23;;;;;;;;;;;19.40;99.90;;;;;;5071739;28;20752;-67
2022/07/27 09:21:09;;;;;;;6.22;1.23;;;19.40;99.90;;;;;;5071219;28;19912;-69
2022/07/27 09:23:36;;;;;;;5.78;1.63;;;19.50;99.90;;;;;;5071423;28;20043;-69
2022/07/27 09:26:16;;;;;;;7.75;1.20;;;19.50;99.90;;;;;;5070787;28;20720;-69
2022/07/27 09:28:42;;;;;;;5.10;0.90;;;19.60;99.90;;;;;;5053176;28;20040;-68
2022/07/27 09:31:11;;;;;;;4.93;1.25;;;19.60;99.90;;;;;;5071233;28;20024;-70
2022/07/27 09:33:54;;;;;;;6.40;1.10;;;19.60;99.90;;;;;;5071282;28;20720;-70
2022/07/27 09:36:22;;;;;;;4.07;1.13;;;19.70;99.90;;;;;;5053217;28;20127;-70
2022/07/27 09:39:01;;;;;;;3.95;0.95;;;19.70;99.90;;;;;;5071144;28;20363;-69
2022/07/27 09:41:37;;;;;;;3.88;1.17;;;19.90;99.90;;;;;;5052919;28;20047;-69
2022/07/27 09:44:02;;;;;;;3.45;1.33;;;19.80;99.50;;;;;;5070906;28;20068;-69
2022/07/27 09:46:32;;;;;;;4.95;1.50;;;19.80;99.90;;;;;;5052717;28;20461;-68
2022/07/27 09:48:58;;;;;;;4.93;1.23;;;19.80;99.80;;;;;;5052649;28;20481;-69
2022/07/27 09:51:24;;;;;;;6.03;1.02;;;19.80;99.90;;;;;;5070778;28;20033;-69
2022/07/27 09:53:51;;;;;;;4.43;1.42;;;19.90;99.50;;;;;;5052750;28;20028;-69
2022/07/27 09:56:28;;;;;;;3.55;1.00;;;19.90;99.90;;;;;;5070769;28;20368;-69
2022/07/27 09:58:58;;;;;;;3.10;0.77;;;20.00;98.90;;;;;;5070734;28;20040;-69
2022/07/27 10:01:26;;;;;;;5.88;1.30;;;20.10;98.90;;;;;;5070658;28;20066;-68
2022/07/27 10:03:54;;;;;;;3.30;1.10;;;20.10;98.80;;;;;;5070789;28;20040;-68
2022/07/27 10:06:21;;;;;;;5.18;1.33;;;20.00;99.30;;;;;;5070608;28;20020;-69
2022/07/27 10:08:49;;;;;;;4.38;1.00;;;20.10;99.10;;;;;;5051957;28;20054;-68
2022/07/27 10:11:16;;;;;;;4.95;1.10;;;20.20;99.90;;;;;;5052368;28;20028;-68
2022/07/27 10:13:42;;;;;;;5.32;1.15;;;20.30;99.90;;;;;;5052192;28;20486;-68
2022/07/27 10:16:30;;;;;;;6.25;1.35;;;20.40;99.90;;;;;;5069855;28;20478;-68
2022/07/27 10:18:55;;;;;;;4.72;1.10;;;20.40;99.20;;;;;;5070361;28;20103;-69
2022/07/27 10:21:23;;;;;;;5.30;1.17;;;20.40;99.30;;;;;;5070280;28;20099;-68
2022/07/27 10:23:59;;;;;;;5.70;1.50;;;20.30;98.90;;;;;;5069224;28;20032;-69
2022/07/27 10:26:24;;;;;;;3.67;1.08;;;20.20;99.50;;;;;;5069902;28;20505;-70
2022/07/27 10:28:53;;;;;;;4.85;1.10;;;20.30;99.70;;;;;;5070160;28;20036;-69
2022/07/27 10:31:23;;;;;;;5.72;1.13;;;20.30;98.60;;;;;;5070178;28;20410;-69
2022/07/27 10:33:54;;;;;;;4.60;1.30;;;20.30;99.00;;;;;;5051882;28;20085;-69
2022/07/27 10:36:22;;;;;;;5.45;1.30;;;20.40;99.00;;;;;;5069962;28;20040;-69
2022/07/27 10:38:56;;;;;;;4.88;1.30;;;20.50;98.60;;;;;;5051441;28;20127;-69
2022/07/27 10:41:23;;;;;;;5.90;1.30;;;20.50;98.60;;;;;;5069940;28;20033;-69
2022/07/27 10:44:09;;;;;;;9.00;1.30;;;20.70;98.90;;;;;;5063090;28;20087;-70
2022/07/27 10:46:37;;;;;;;3.67;1.02;;;21.00;98.00;;;;;;5063084;28;20052;-69
2022/07/27 10:49:19;;;;;;;5.60;1.08;;;21.00;97.50;;;;;;5068051;28;20402;-70
2022/07/27 10:51:45;;;;;;;4.45;1.10;;;21.00;97.90;;;;;;5068936;28;20390;-69
2022/07/27 10:54:34;;;;;;;5.60;1.02;;;21.20;98.60;;;;;;5068645;28;20498;-69
2022/07/27 10:57:01;;;;;;;4.68;1.30;;;21.20;97.80;;;;;;5068585;28;20040;-69
2022/07/27 10:59:39;;;;;;;4.97;1.10;;;21.20;98.30;;;;;;5069392;28;20028;-69
2022/07/27 11:02:18;;;;;;;6.20;1.10;;;21.40;97.10;;;;;;5069727;28;20024;-69
2022/07/27 11:04:50;;;;;;;3.15;1.10;;;21.30;96.80;;;;;;5069352;28;20383;-69
2022/07/27 11:07:21;;;;;;;5.50;1.10;;;21.30;97.90;;;;;;5069204;28;20042;-69
2022/07/27 11:09:49;;;;;;;7.38;1.27;;;21.50;97.10;;;;;;5047262;28;20522;-70
2022/07/27 11:12:16;;;;;;;3.60;1.20;;;21.50;96.70;;;;;;5048061;28;20391;-69
2022/07/27 11:14:53;;;;;;;5.75;1.02;;;21.80;97.20;;;;;;5048376;28;20032;-70
2022/07/27 11:17:21;;;;;;;2.85;0.85;;;22.10;95.60;;;;;;5034919;28;20454;-70
2022/07/27 11:19:59;;;;;;;4.20;0.90;;;22.30;94.50;;;;;;5048321;28;20673;-70
2022/07/27 11:22:42;;;;;;;3.17;1.00;;;22.60;93.10;;;;;;5048902;28;20130;-70
2022/07/27 11:25:08;;;;;;;4.40;1.00;;;23.00;91.10;;;;;;5048459;28;20041;-69
2022/07/27 11:27:50;;;;;;;4.30;0.90;;;22.90;91.40;;;;;;5047472;28;20679;-70
2022/07/27 11:30:26;;;;;;;5.65;1.38;;;22.90;91.30;;;;;;5048601;28;20029;-69
2022/07/27 11:32:53;;;;;;;4.45;1.20;;;22.80;91.50;;;;;;5048130;28;20032;-70
2022/07/27 11:35:19;;;;;;;3.55;1.00;;;22.90;91.20;;;;;;5048579;28;20086;-69
2022/07/27 11:38:03;;;;;;;4.03;1.05;;;24.10;89.30;;;;;;5046852;28;20033;-70
2022/07/27 11:40:42;;;;;;;3.55;0.85;;;25.70;75.30;;;;;;5048914;28;20032;-69
2022/07/27 11:43:08;;;;;;;7.78;1.00;;;26.00;76.00;;;;;;5048935;28;20028;-69
2022/07/27 11:45:38;;;;;;;4.55;1.20;;;26.90;65.60;;;;;;5048395;28;20123;-69
2022/07/27 11:48:09;;;;;;;6.13;1.23;;;27.60;62.70;;;;;;5047501;28;20037;-70
2022/07/27 11:50:35;;;;;;;4.50;1.10;;;27.80;58.00;;;;;;5047735;28;20482;-70
2022/07/27 11:53:01;;;;;;;4.18;1.13;;;27.20;56.30;;;;;;5047195;28;20037;-70
2022/07/27 11:55:26;;;;;;;4.88;1.00;;;27.10;61.20;;;;;;5048338;28;20041;-69
2022/07/27 11:57:52;;;;;;;5.63;1.40;;;27.20;58.20;;;;;;5046241;28;20065;-69
2022/07/27 12:00:18;;;;;;;4.32;1.20;;;27.00;61.80;;;;;;5048984;28;20047;-70
2022/07/27 12:02:49;;;;;;;6.35;1.08;;;27.30;57.50;;;;;;5046237;28;20064;-69
2022/07/27 12:05:14;;;;;;;4.68;1.13;;;26.90;58.20;;;;;;5047019;28;20094;-69
2022/07/27 12:07:42;;;;;;;4.15;1.25;;;26.00;59.90;;;;;;5047871;28;20041;-69
2022/07/27 12:10:09;;;;;;;5.80;1.17;;;25.20;66.00;;;;;;5067196;28;20051;-69
2022/07/27 12:12:36;;;;;;;3.40;1.15;;;25.00;67.50;;;;;;5067161;28;20709;-70
2022/07/27 12:15:14;;;;;;;6.05;1.20;;;24.80;66.30;;;;;;5067429;28;20028;-69
2022/07/27 12:17:42;;;;;;;5.80;1.30;;;24.60;65.50;;;;;;5067235;28;20044;-70
2022/07/27 12:20:13;;;;;;;4.45;1.00;;;24.40;67.30;;;;;;5067283;28;20397;-70
2022/07/27 12:22:47;;;;;;;3.35;1.00;;;24.30;67.60;;;;;;5042996;28;20036;-70
2022/07/27 12:25:16;;;;;;;4.28;1.10;;;24.30;64.00;;;;;;5067226;28;20033;-69
2022/07/27 12:28:12;;;;;;;6.80;1.45;;;24.00;65.00;;;;;;5066080;28;20087;-69
2022/07/27 12:30:50;;;;;;;5.32;1.40;;;23.90;67.70;;;;;;5067562;28;20024;-69
2022/07/27 12:33:34;;;;;;;3.25;1.10;;;24.00;66.20;;;;;;5067168;28;20048;-69
2022/07/27 12:36:01;;;;;;;4.57;1.33;;;23.90;69.10;;;;;;5049097;28;20039;-69
2022/07/27 12:38:57;;;;;;;10.93;1.73;;;23.90;67.10;;;;;;5050674;28;20550;-69
2022/07/27 12:41:29;;;;;;;6.28;1.38;;;23.80;66.80;;;;;;5055298;28;20059;-69
2022/07/27 12:44:07;;;;;;;4.10;1.10;;;23.40;64.30;;;;;;5053957;28;20040;-69
2022/07/27 12:46:33;;;;;;;3.58;0.90;;;23.10;66.10;;;;;;5071995;28;20254;-69
2022/07/27 12:48:59;;;;;;;3.83;1.40;;;23.00;64.80;;;;;;5053141;28;20024;-68
2022/07/27 12:51:25;;;;;;;3.90;1.30;;;22.90;68.00;;;;;;5070964;28;20043;-69